TimeEDT,TemperatureF,Dew PointF,Humidity,Sea Level PressureIn,VisibilityMPH,Wind Direction,Wind SpeedMPH,Gust SpeedMPH,PrecipitationIn,Events,Conditions,WindDirDegrees,DateUTC
12:51 AM,79.0,73.9,84,29.94,8.0,West,9.2,17.3,N/A,,Overcast,260,2013-08-02 04:51:00
1:11 AM,78.8,73.4,83,29.94,5.0,West,10.4,17.3,N/A,,Haze,260,2013-08-02 05:11:00
1:51 AM,79.0,73.9,84,29.92,5.0,West,8.1,17.3,N/A,,Haze,260,2013-08-02 05:51:00
2:12 AM,78.8,73.4,83,29.91,8.0,WSW,11.5,17.3,N/A,,Scattered Clouds,250,2013-08-02 06:12:00
2:51 AM,79.0,73.9,84,29.90,9.0,West,9.2,16.1,N/A,,Partly Cloudy,260,2013-08-02 06:51:00
3:09 AM,78.8,73.4,83,29.90,10.0,West,9.2,18.4,N/A,,Mostly Cloudy,270,2013-08-02 07:09:00
3:51 AM,79.0,75.0,88,29.90,10.0,West,11.5,21.9,N/A,,Mostly Cloudy,260,2013-08-02 07:51:00
4:51 AM,80.1,75.0,85,29.92,9.0,West,11.5,19.6,N/A,,Overcast,280,2013-08-02 08:51:00
5:51 AM,79.0,73.9,84,29.94,9.0,West,11.5,21.9,N/A,,Overcast,280,2013-08-02 09:51:00
6:19 AM,78.8,73.4,83,29.95,9.0,West,9.2,-,N/A,,Mostly Cloudy,280,2013-08-02 10:19:00
6:44 AM,78.8,73.4,83,29.95,8.0,West,10.4,17.3,N/A,,Overcast,270,2013-08-02 10:44:00
6:51 AM,80.1,75.0,85,29.96,8.0,West,9.2,-,N/A,,Overcast,280,2013-08-02 10:51:00
7:13 AM,78.8,73.4,83,29.96,7.0,West,8.1,17.3,N/A,,Mostly Cloudy,260,2013-08-02 11:13:00
7:51 AM,80.1,75.0,85,29.98,8.0,West,6.9,-,N/A,,Scattered Clouds,270,2013-08-02 11:51:00
8:05 AM,80.6,75.2,84,29.99,8.0,West,8.1,-,N/A,,Mostly Cloudy,260,2013-08-02 12:05:00
8:42 AM,82.4,75.2,79,29.99,9.0,WSW,6.9,-,N/A,,Partly Cloudy,250,2013-08-02 12:42:00
8:51 AM,82.0,75.0,79,30.00,6.0,WSW,5.8,-,N/A,,Haze,250,2013-08-02 12:51:00
9:24 AM,84.2,75.2,74,30.01,8.0,West,8.1,-,N/A,,Mostly Cloudy,270,2013-08-02 13:24:00
9:45 AM,82.4,75.2,79,30.01,7.0,WSW,9.2,-,N/A,,Mostly Cloudy,250,2013-08-02 13:45:00
9:46 AM,82.0,75.0,79,30.01,7.0,WSW,8.1,-,N/A,,Mostly Cloudy,250,2013-08-02 13:46:00
9:55 AM,82.4,75.2,79,30.01,7.0,WSW,9.2,-,N/A,,Mostly Cloudy,250,2013-08-02 13:55:00
10:02 AM,82.4,75.2,79,30.01,7.0,WSW,10.4,-,N/A,,Mostly Cloudy,240,2013-08-02 14:02:00
10:37 AM,84.2,75.2,74,30.01,9.0,West,6.9,-,N/A,,Scattered Clouds,280,2013-08-02 14:37:00
10:51 AM,84.0,75.0,74,30.01,9.0,West,9.2,-,N/A,,Partly Cloudy,280,2013-08-02 14:51:00
11:51 AM,82.9,75.0,77,30.03,8.0,Variable,4.6,-,N/A,,Mostly Cloudy,0,2013-08-02 15:51:00
12:49 PM,84.2,75.2,74,30.04,9.0,SSW,6.9,-,N/A,,Scattered Clouds,210,2013-08-02 16:49:00
12:51 PM,84.9,75.9,74,30.04,9.0,SSW,5.8,-,N/A,,Scattered Clouds,200,2013-08-02 16:51:00
1:51 PM,84.9,75.0,72,30.03,10.0,South,6.9,-,N/A,,Clear,190,2013-08-02 17:51:00
2:51 PM,86.0,75.9,72,30.02,10.0,SSW,9.2,17.3,N/A,,Clear,210,2013-08-02 18:51:00
3:51 PM,84.0,75.9,76,30.01,10.0,SSW,10.4,-,N/A,,Clear,210,2013-08-02 19:51:00
4:51 PM,82.9,77.0,82,30.00,9.0,SW,10.4,18.4,N/A,,Clear,220,2013-08-02 20:51:00
5:51 PM,84.0,77.0,79,30.00,9.0,SW,10.4,-,N/A,,Clear,230,2013-08-02 21:51:00
6:51 PM,82.9,75.9,79,30.00,10.0,SW,9.2,-,N/A,,Clear,220,2013-08-02 22:51:00
7:51 PM,82.0,75.9,82,30.02,8.0,SW,9.2,-,N/A,,Clear,230,2013-08-02 23:51:00
8:51 PM,81.0,77.0,88,30.04,10.0,SW,10.4,-,N/A,,Clear,220,2013-08-03 00:51:00
9:51 PM,81.0,77.0,88,30.04,9.0,SW,10.4,-,N/A,,Clear,230,2013-08-03 01:51:00
10:51 PM,81.0,75.9,85,30.04,10.0,SW,11.5,-,N/A,,Clear,230,2013-08-03 02:51:00
11:51 PM,81.0,75.9,85,30.04,10.0,WSW,11.5,-,N/A,,Partly Cloudy,240,2013-08-03 03:51:00